Terminal Aerodrome Forecast
Issued by NWS

Home | Current Version | Previous Version | Text Only | Print | Product List | Glossary On
Versions: 1 2 3 4 5 6 7 8 9 10 11 12 13 14 15 16 17 18 19 20 21
000
FTUS41 KBGM 262341
TAFRME
TAF
KRME 262341Z 2700/2724 12010KT P6SM OVC015
     FM270700 12008KT 3SM -RA BR OVC008 WS020/18035KT
     FM271000 12008KT 3SM -RA BR OVC005 WS020/18035KT
     FM271800 12005KT P6SM OVC008=

USA.gov is the U.S. government's official web portal to all federal, state and local government web resources and services.